createdAt,value
2023-01-12T00:02:13.469Z,61.53
2023-01-12T00:04:41.231Z,59.10
2023-01-12T00:07:11.205Z,58.53
2023-01-12T00:09:39.142Z,60.70
2023-01-12T00:12:10.056Z,57.35
2023-01-12T00:14:39.739Z,56.70
2023-01-12T00:17:09.185Z,56.90
2023-01-12T00:19:40.543Z,58.65
2023-01-12T00:22:12.665Z,53.38
2023-01-12T00:24:44.089Z,58.80
2023-01-12T00:27:17.693Z,53.80
2023-01-12T00:29:45.366Z,53.55
2023-01-12T00:32:17.369Z,53.25
2023-01-12T00:34:45.489Z,51.90
2023-01-12T00:37:16.406Z,49.42
2023-01-12T00:39:56.650Z,49.42
2023-01-12T00:42:46.480Z,49.03
2023-01-12T00:45:23.831Z,49.60
2023-01-12T00:47:52.331Z,48.75
2023-01-12T00:50:19.914Z,44.20
2023-01-12T00:52:47.429Z,43.08
2023-01-12T00:55:14.893Z,39.15
2023-01-12T00:57:42.580Z,39.42
2023-01-12T01:00:10.903Z,37.75
2023-01-12T01:02:39.705Z,37.63
2023-01-12T01:05:07.510Z,32.88
2023-01-12T01:07:35.014Z,32.10
2023-01-12T01:10:06.072Z,31.95
2023-01-12T01:12:34.107Z,29.65
2023-01-12T01:15:02.976Z,27.13
2023-01-12T01:17:35.010Z,24.00
2023-01-12T01:20:07.165Z,22.25
2023-01-12T01:22:44.871Z,21.75
2023-01-12T01:25:14.582Z,21.98
2023-01-12T01:27:42.129Z,21.10
2023-01-12T01:30:13.450Z,22.83
2023-01-12T01:32:41.506Z,22.67
2023-01-12T01:35:09.498Z,22.65
2023-01-12T01:37:37.084Z,24.02
2023-01-12T01:40:07.431Z,22.95
2023-01-12T01:42:35.109Z,25.10
2023-01-12T01:45:05.561Z,23.02
2023-01-12T01:47:44.346Z,24.15
2023-01-12T01:50:24.057Z,24.55
2023-01-12T01:53:01.874Z,23.88
2023-01-12T01:55:39.125Z,26.33
2023-01-12T01:58:31.453Z,29.52
2023-01-12T02:01:24.216Z,27.80
2023-01-12T02:04:28.694Z,27.08
2023-01-12T02:07:18.796Z,28.95
2023-01-12T02:09:46.359Z,28.38
2023-01-12T02:16:51.693Z,29.60
2023-01-12T02:20:13.113Z,28.90
2023-01-12T02:23:21.178Z,33.05
2023-01-12T02:26:17.995Z,28.85
2023-01-12T02:29:27.581Z,30.17
2023-01-12T02:32:19.736Z,30.77
2023-01-12T02:35:25.181Z,27.90
2023-01-12T02:38:16.253Z,28.23
2023-01-12T02:41:02.069Z,28.90
2023-01-12T02:43:31.833Z,30.05
2023-01-12T02:46:14.767Z,31.75
2023-01-12T02:51:45.567Z,29.63
2023-01-12T02:54:16.403Z,30.42
2023-01-12T02:56:47.851Z,29.38
2023-01-12T02:59:35.131Z,32.08
2023-01-12T03:02:12.549Z,32.50
2023-01-12T03:04:43.687Z,29.80
2023-01-12T03:07:38.337Z,32.10
2023-01-12T03:10:19.264Z,32.10
2023-01-12T03:12:49.116Z,29.50
2023-01-12T03:15:20.613Z,28.50
2023-01-12T03:17:58.502Z,30.42
2023-01-12T03:20:35.725Z,26.98
2023-01-12T03:23:11.110Z,29.88
2023-01-12T03:25:44.281Z,31.67
2023-01-12T03:28:18.047Z,31.38
2023-01-12T03:31:11.101Z,30.63
2023-01-12T03:33:42.873Z,32.22
2023-01-12T03:36:19.668Z,31.05
2023-01-12T03:39:02.542Z,34.72
2023-01-12T03:41:40.495Z,31.17
2023-01-12T03:44:19.905Z,32.00
2023-01-12T03:46:58.723Z,30.02
2023-01-12T03:49:30.962Z,31.55
2023-01-12T03:52:01.186Z,29.23
2023-01-12T03:54:30.057Z,29.05
2023-01-12T03:56:58.378Z,29.40
2023-01-12T03:59:26.139Z,26.27
2023-01-12T04:01:53.808Z,28.85
2023-01-12T04:04:23.151Z,29.08
2023-01-12T04:06:50.738Z,28.42
2023-01-12T04:09:18.358Z,30.90
2023-01-12T04:12:04.750Z,30.58
2023-01-12T04:14:33.134Z,31.83
2023-01-12T04:17:00.632Z,30.38
2023-01-12T04:19:28.230Z,29.85
2023-01-12T04:22:14.152Z,29.65
2023-01-12T04:24:41.914Z,28.35
2023-01-12T04:27:12.240Z,29.63
2023-01-12T04:29:39.643Z,30.10
2023-01-12T04:32:07.353Z,30.75
2023-01-12T04:34:34.787Z,29.73
2023-01-12T04:37:04.841Z,31.23
2023-01-12T04:39:32.445Z,30.13
2023-01-12T04:41:59.828Z,34.72
2023-01-12T04:44:27.444Z,36.45
2023-01-12T04:46:55.003Z,38.13
2023-01-12T04:49:25.119Z,41.35
2023-01-12T04:51:52.762Z,40.45
2023-01-12T04:54:20.189Z,39.90
2023-01-12T04:56:47.708Z,36.88
2023-01-12T04:59:17.621Z,35.55
2023-01-12T05:01:46.059Z,33.47
2023-01-12T05:04:15.120Z,31.27
2023-01-12T05:06:43.264Z,28.75
2023-01-12T05:09:29.358Z,27.35
2023-01-12T05:11:56.965Z,26.08
2023-01-12T05:14:26.193Z,28.73
2023-01-12T05:16:54.241Z,27.00
2023-01-12T05:19:21.869Z,29.70
2023-01-12T05:21:49.949Z,25.45
2023-01-12T05:24:18.027Z,22.67
2023-01-12T05:26:45.665Z,24.77
2023-01-12T05:29:13.446Z,23.38
2023-01-12T05:31:40.921Z,20.25
2023-01-12T05:34:08.618Z,18.70
2023-01-12T05:36:36.105Z,18.67
2023-01-12T05:39:05.486Z,20.65
2023-01-12T05:41:32.789Z,24.95
2023-01-12T05:44:00.290Z,18.70
2023-01-12T05:46:33.776Z,18.88
2023-01-12T05:49:03.813Z,20.92
2023-01-12T05:51:32.823Z,19.45
2023-01-12T05:54:00.309Z,18.98
2023-01-12T05:56:28.549Z,19.20
2023-01-12T05:58:58.899Z,16.48
2023-01-12T06:01:27.612Z,20.13
2023-01-12T06:04:01.507Z,17.85
2023-01-12T06:06:31.593Z,16.85
2023-01-12T06:09:00.394Z,16.00
2023-01-12T06:11:46.575Z,15.88
2023-01-12T06:14:14.073Z,15.40
2023-01-12T06:16:45.788Z,16.30
2023-01-12T06:19:13.420Z,16.38
2023-01-12T06:21:41.098Z,17.50
2023-01-12T06:24:11.712Z,17.88
2023-01-12T06:26:39.628Z,17.85
2023-01-12T06:29:07.644Z,16.67
2023-01-12T06:31:35.252Z,17.23
2023-01-12T06:34:02.745Z,17.05
2023-01-12T06:36:30.319Z,17.20
2023-01-12T06:38:57.880Z,18.33
2023-01-12T06:41:44.094Z,30.17
2023-01-12T06:44:11.683Z,16.55
2023-01-12T06:46:39.137Z,14.05
2023-01-12T06:49:10.008Z,14.13
2023-01-12T06:51:37.723Z,17.35
2023-01-12T06:54:05.350Z,23.10
2023-01-12T06:56:32.923Z,23.38
2023-01-12T06:59:00.544Z,27.70
2023-01-12T07:01:28.398Z,40.03
2023-01-12T07:03:56.154Z,24.88
2023-01-12T07:06:23.674Z,19.13
2023-01-12T07:08:51.231Z,17.88
2023-01-12T07:11:18.774Z,18.42
2023-01-12T07:13:46.310Z,15.70
2023-01-12T07:16:14.025Z,14.60
2023-01-12T07:18:41.436Z,14.95
2023-01-12T07:21:13.645Z,14.60
2023-01-12T07:23:44.426Z,14.00
2023-01-12T07:26:12.814Z,14.90
2023-01-12T07:28:43.262Z,12.20
2023-01-12T07:31:12.802Z,13.45
2023-01-12T07:33:42.848Z,16.42
2023-01-12T07:36:10.718Z,105.75
2023-01-12T07:38:38.390Z,43.05
2023-01-12T07:41:05.971Z,24.08
2023-01-12T07:43:36.536Z,25.40
2023-01-12T07:46:04.327Z,20.23
2023-01-12T07:48:33.524Z,17.88
2023-01-12T07:51:00.999Z,19.15
2023-01-12T07:53:28.348Z,17.83
2023-01-12T07:55:59.135Z,17.13
2023-01-12T07:58:28.043Z,15.80
2023-01-12T08:00:59.889Z,19.38
2023-01-12T08:03:31.178Z,17.00
2023-01-12T08:06:01.606Z,17.67
2023-01-12T08:08:29.378Z,33.88
2023-01-12T08:11:08.820Z,45.50
2023-01-12T08:13:37.740Z,32.58
2023-01-12T08:16:15.083Z,16.73
2023-01-12T08:18:52.392Z,19.70
2023-01-12T08:21:26.097Z,16.70
2023-01-12T08:23:58.163Z,15.43
2023-01-12T08:26:31.329Z,14.30
2023-01-12T08:29:11.574Z,16.00
2023-01-12T08:31:41.937Z,15.50
2023-01-12T08:34:10.262Z,15.50
2023-01-12T08:36:39.866Z,15.13
2023-01-12T08:39:07.682Z,16.13
2023-01-12T08:41:37.615Z,15.30
2023-01-12T08:44:10.961Z,16.73
2023-01-12T08:46:56.127Z,20.98
2023-01-12T08:49:26.820Z,21.35
2023-01-12T08:51:54.528Z,18.85
2023-01-12T08:54:23.207Z,19.20
2023-01-12T08:56:51.266Z,16.55
2023-01-12T08:59:19.521Z,14.27
2023-01-12T09:01:48.302Z,14.55
2023-01-12T09:04:15.983Z,15.68
2023-01-12T09:06:45.371Z,18.90
2023-01-12T09:09:17.466Z,27.70
2023-01-12T09:11:45.463Z,20.35
2023-01-12T09:14:14.412Z,17.15
2023-01-12T09:16:42.775Z,15.45
2023-01-12T09:19:13.019Z,15.65
2023-01-12T09:21:42.305Z,15.80
2023-01-12T09:24:11.024Z,15.80
2023-01-12T09:26:41.471Z,17.48
2023-01-12T09:29:10.412Z,16.30
2023-01-12T09:31:40.308Z,16.23
2023-01-12T09:34:07.843Z,15.85
2023-01-12T09:36:37.363Z,16.02
2023-01-12T09:39:10.181Z,16.00
2023-01-12T09:41:58.184Z,16.33
2023-01-12T09:44:51.267Z,15.60
2023-01-12T09:47:24.471Z,17.17
2023-01-12T09:50:10.246Z,16.90
2023-01-12T09:52:45.026Z,17.77
2023-01-12T09:55:24.348Z,16.50
2023-01-12T09:58:14.669Z,15.63
2023-01-12T10:00:42.556Z,14.73
2023-01-12T10:03:39.819Z,16.05
2023-01-12T10:06:15.617Z,15.00
2023-01-12T10:08:57.040Z,18.17
2023-01-12T10:11:29.200Z,19.40
2023-01-12T10:14:22.302Z,17.95
2023-01-12T10:17:05.105Z,16.88
2023-01-12T10:19:38.682Z,17.80
2023-01-12T10:22:36.972Z,17.05
2023-01-12T10:25:24.910Z,15.90
2023-01-12T10:27:58.154Z,16.40
2023-01-12T10:30:31.971Z,16.33
2023-01-12T10:33:19.626Z,17.92
2023-01-12T10:36:17.288Z,15.85
2023-01-12T10:38:55.004Z,17.45
2023-01-12T10:41:40.362Z,15.85
2023-01-12T10:44:15.336Z,18.35
2023-01-12T10:46:43.177Z,16.42
2023-01-12T10:49:24.863Z,16.98
2023-01-12T10:52:11.465Z,16.63
2023-01-12T10:54:41.602Z,18.67
2023-01-12T10:57:18.081Z,16.10
2023-01-12T11:00:21.281Z,15.77
2023-01-12T11:02:49.717Z,16.45
2023-01-12T11:05:31.812Z,16.40
2023-01-12T11:07:59.495Z,15.63
2023-01-12T11:10:36.764Z,14.55
2023-01-12T11:13:07.073Z,16.85
2023-01-12T11:15:39.418Z,16.20
2023-01-12T11:18:25.702Z,16.40
2023-01-12T11:21:07.867Z,14.30
2023-01-12T11:23:46.784Z,15.60
2023-01-12T11:26:24.845Z,17.95
2023-01-12T11:28:56.472Z,18.95
2023-01-12T11:31:28.658Z,18.40
2023-01-12T11:34:02.383Z,17.73
2023-01-12T11:36:40.405Z,17.63
2023-01-12T11:39:15.659Z,15.27
2023-01-12T11:42:18.160Z,16.25
2023-01-12T11:45:06.209Z,20.80
2023-01-12T11:47:46.456Z,15.15
2023-01-12T11:50:32.920Z,13.70
2023-01-12T11:53:07.352Z,15.70
2023-01-12T11:56:18.300Z,15.15
2023-01-12T11:59:20.771Z,18.00
2023-01-12T12:02:26.070Z,21.10
2023-01-12T12:05:24.124Z,17.60
2023-01-12T12:08:12.428Z,22.27
2023-01-12T12:11:13.178Z,24.13
2023-01-12T12:14:19.876Z,26.27
2023-01-12T12:16:53.444Z,14.90
2023-01-12T12:19:32.938Z,14.43
2023-01-12T12:22:25.925Z,14.68
2023-01-12T12:25:32.023Z,14.32
2023-01-12T12:28:40.660Z,14.02
2023-01-12T12:31:08.241Z,14.30
2023-01-12T12:34:05.107Z,13.52
2023-01-12T12:36:50.483Z,13.70
2023-01-12T12:39:53.399Z,14.38
2023-01-12T12:42:42.293Z,12.82
2023-01-12T12:45:31.068Z,14.50
2023-01-12T12:49:09.621Z,13.73
2023-01-12T12:51:42.031Z,14.48
2023-01-12T12:54:18.317Z,12.68
2023-01-12T12:56:47.213Z,13.93
2023-01-12T13:00:00.403Z,12.85
2023-01-12T13:02:53.193Z,13.38
2023-01-12T13:05:40.345Z,12.57
2023-01-12T13:08:34.318Z,14.00
2023-01-12T13:11:01.915Z,13.38
2023-01-12T13:13:35.803Z,14.68
2023-01-12T13:16:11.778Z,14.55
2023-01-12T13:18:46.744Z,12.25
2023-01-12T13:21:27.214Z,11.52
2023-01-12T13:24:25.655Z,11.88
2023-01-12T13:27:12.528Z,11.88
2023-01-12T13:30:20.312Z,12.10
2023-01-12T13:32:54.755Z,12.50
2023-01-12T13:35:34.724Z,11.55
2023-01-12T13:38:08.143Z,12.25
2023-01-12T13:40:35.864Z,12.63
2023-01-12T13:43:19.656Z,11.85
2023-01-12T13:45:57.352Z,11.93
2023-01-12T13:48:26.378Z,12.15
2023-01-12T13:51:29.011Z,26.35
2023-01-12T13:54:10.748Z,10.00
2023-01-12T13:56:40.611Z,14.30
2023-01-12T13:59:20.138Z,13.77
2023-01-12T14:01:52.256Z,17.92
2023-01-12T14:05:11.340Z,13.45
2023-01-12T14:07:48.848Z,12.60
2023-01-12T14:10:27.991Z,13.05
2023-01-12T14:13:14.248Z,13.75
2023-01-12T14:16:03.930Z,13.05
2023-01-12T14:18:45.909Z,12.65
2023-01-12T14:21:29.591Z,12.45
2023-01-12T14:24:18.135Z,12.35
2023-01-12T14:26:51.460Z,13.02
2023-01-12T14:29:19.029Z,12.68
2023-01-12T14:31:53.028Z,12.60
2023-01-12T14:34:38.068Z,13.10
2023-01-12T14:37:20.683Z,11.80
2023-01-12T14:39:49.384Z,12.40
2023-01-12T14:42:37.607Z,14.02
2023-01-12T14:45:38.812Z,13.48
2023-01-12T14:48:27.720Z,13.52
2023-01-12T14:51:10.724Z,12.57
2023-01-12T14:56:14.486Z,14.32
2023-01-12T14:58:42.226Z,19.38
2023-01-12T15:01:11.215Z,27.05
2023-01-12T15:03:43.691Z,25.00
2023-01-12T15:09:03.427Z,20.55
2023-01-12T15:11:38.135Z,17.02
2023-01-12T15:14:20.045Z,19.65
2023-01-12T15:17:07.821Z,16.98
2023-01-12T15:19:54.968Z,16.90
2023-01-12T15:23:00.695Z,17.73
2023-01-12T15:25:39.596Z,19.13
2023-01-12T15:28:08.833Z,17.70
2023-01-12T17:05:38.952Z,30.05
2023-01-12T17:08:42.500Z,27.05
2023-01-12T17:17:47.483Z,28.67
2023-01-12T17:20:35.168Z,28.08
2023-01-12T17:23:15.972Z,28.35
2023-01-12T17:28:37.030Z,30.65
2023-01-12T17:31:17.591Z,30.52
2023-01-12T17:33:47.321Z,30.17
2023-01-12T17:36:24.672Z,31.50
2023-01-12T17:38:52.848Z,30.95
2023-01-12T17:41:39.972Z,31.33
2023-01-12T17:44:08.098Z,31.45
2023-01-12T17:46:37.346Z,31.92
2023-01-12T17:49:08.437Z,30.33
2023-01-12T17:51:37.708Z,31.10
2023-01-12T17:54:10.993Z,30.17
2023-01-12T17:56:40.280Z,28.23
2023-01-12T17:59:09.153Z,28.58
2023-01-12T18:01:41.008Z,29.88
2023-01-12T18:04:12.369Z,31.70
2023-01-12T18:06:40.035Z,28.02
2023-01-12T18:09:08.241Z,31.70
2023-01-12T18:11:36.422Z,31.40
2023-01-12T18:14:05.580Z,30.80
2023-01-12T18:16:33.272Z,33.53
2023-01-12T18:19:09.104Z,36.53
2023-01-12T18:21:37.014Z,34.42
2023-01-12T18:24:04.998Z,39.00
2023-01-12T18:26:38.813Z,37.67
2023-01-12T18:29:08.388Z,40.17
2023-01-12T18:31:38.731Z,38.58
2023-01-12T18:34:08.354Z,37.47
2023-01-12T18:36:40.894Z,40.80
2023-01-12T18:39:15.239Z,38.97
2023-01-12T18:42:02.214Z,39.78
2023-01-12T18:44:31.545Z,41.25
2023-01-12T18:47:18.861Z,43.28
2023-01-12T18:49:48.352Z,43.75
2023-01-12T18:52:35.953Z,45.70
2023-01-12T18:55:05.190Z,41.67
2023-01-12T18:57:35.832Z,43.65
2023-01-12T19:00:16.180Z,40.65
2023-01-12T19:02:44.415Z,42.63
2023-01-12T19:05:25.992Z,41.63
2023-01-12T19:07:59.557Z,42.15
2023-01-12T19:10:29.571Z,39.80
2023-01-12T19:13:17.060Z,43.22
2023-01-12T19:16:03.597Z,44.22
2023-01-12T19:18:31.828Z,43.58
2023-01-12T19:21:23.844Z,41.22
2023-01-12T19:24:10.171Z,43.88
2023-01-12T19:26:56.606Z,40.05
2023-01-12T19:29:24.833Z,41.08
2023-01-12T19:31:52.452Z,41.55
2023-01-12T19:34:20.227Z,39.33
2023-01-12T19:36:48.348Z,42.63
2023-01-12T19:39:27.331Z,39.53
2023-01-12T19:42:14.083Z,44.88
2023-01-12T19:44:42.010Z,43.63
2023-01-12T19:47:10.493Z,45.33
2023-01-12T19:49:40.225Z,42.08
2023-01-12T19:52:11.180Z,36.78
2023-01-12T19:54:38.954Z,34.95
2023-01-12T19:57:07.115Z,33.58
2023-01-12T19:59:35.664Z,31.38
2023-01-12T20:02:04.395Z,30.00
2023-01-12T20:04:32.813Z,31.83
2023-01-12T20:07:00.766Z,29.83
2023-01-12T20:09:29.627Z,29.92
2023-01-12T20:12:00.387Z,28.38
2023-01-12T20:14:28.469Z,26.33
2023-01-12T20:16:56.596Z,31.67
2023-01-12T20:19:24.569Z,32.25
2023-01-12T20:21:56.030Z,30.92
2023-01-12T20:24:27.095Z,30.17
2023-01-12T20:26:55.331Z,34.20
2023-01-12T20:29:24.094Z,36.10
2023-01-12T20:31:53.004Z,33.95
2023-01-12T20:34:22.011Z,34.90
2023-01-12T20:36:52.619Z,32.63
2023-01-12T20:39:26.901Z,30.83
2023-01-12T20:41:55.025Z,34.13
2023-01-12T20:44:23.659Z,34.70
2023-01-12T20:46:52.153Z,33.35
2023-01-12T20:49:22.547Z,37.33
2023-01-12T20:51:50.644Z,37.78
2023-01-12T20:54:20.489Z,37.55
2023-01-12T20:56:48.258Z,35.10
2023-01-12T20:59:21.621Z,41.70
2023-01-12T21:01:51.730Z,38.05
2023-01-12T21:04:19.785Z,42.78
2023-01-12T21:06:47.816Z,49.20
2023-01-12T21:09:15.402Z,50.42
2023-01-12T21:11:42.950Z,53.60
2023-01-12T21:14:10.403Z,55.92
2023-01-12T21:16:37.870Z,54.67
2023-01-12T21:19:05.318Z,56.20
2023-01-12T21:21:35.649Z,52.90
2023-01-12T21:24:09.045Z,52.83
2023-01-12T21:26:36.551Z,51.38
2023-01-12T21:29:05.500Z,57.45
2023-01-12T21:31:33.077Z,63.38
2023-01-12T21:34:00.839Z,63.28
2023-01-12T21:36:28.336Z,69.70
2023-01-12T21:38:55.806Z,65.75
2023-01-12T21:41:23.510Z,63.33
2023-01-12T21:43:52.527Z,61.67
2023-01-12T21:46:20.716Z,60.70
2023-01-12T21:48:48.350Z,61.05
2023-01-12T21:51:17.583Z,57.08
2023-01-12T21:53:45.225Z,54.22
2023-01-12T21:56:13.747Z,47.63
2023-01-12T21:58:42.556Z,47.45
2023-01-12T22:01:15.589Z,47.55
2023-01-12T22:03:45.702Z,51.38
2023-01-12T22:08:43.733Z,48.17
2023-01-12T22:11:16.455Z,42.38
2023-01-12T22:13:44.557Z,41.80
2023-01-12T22:16:15.160Z,42.72
2023-01-12T22:18:52.710Z,37.63
2023-01-12T22:21:45.097Z,36.35
2023-01-12T22:24:20.940Z,34.65
2023-01-12T22:27:04.878Z,33.15
2023-01-12T22:30:01.501Z,36.00
2023-01-12T22:32:31.674Z,33.80
2023-01-12T22:34:59.391Z,34.80
2023-01-12T22:37:27.598Z,32.20
2023-01-12T22:39:55.924Z,32.22
2023-01-12T22:42:42.744Z,31.10
2023-01-12T22:45:10.720Z,35.05
2023-01-12T22:47:47.559Z,35.33
2023-01-12T22:50:16.359Z,36.03
2023-01-12T22:52:43.765Z,29.50
2023-01-12T22:55:11.445Z,27.77
2023-01-12T22:57:39.012Z,26.52
2023-01-12T23:00:07.203Z,25.75
2023-01-12T23:02:52.855Z,27.63
2023-01-12T23:05:20.699Z,27.05
2023-01-12T23:07:48.499Z,26.08
2023-01-12T23:10:16.504Z,25.75
2023-01-12T23:13:06.956Z,23.13
2023-01-12T23:15:39.220Z,21.92
2023-01-12T23:18:07.795Z,24.20
2023-01-12T23:20:36.381Z,25.63
2023-01-12T23:23:04.496Z,23.65
2023-01-12T23:25:36.177Z,22.90
2023-01-12T23:28:04.886Z,21.92
2023-01-12T23:30:32.924Z,22.10
2023-01-12T23:33:04.465Z,21.30
2023-01-12T23:35:37.577Z,20.25
2023-01-12T23:38:06.298Z,21.15
2023-01-12T23:40:34.132Z,19.10
2023-01-12T23:43:01.948Z,20.10
2023-01-12T23:45:29.696Z,20.23
2023-01-12T23:47:57.733Z,20.83
2023-01-12T23:50:25.301Z,21.33
2023-01-12T23:52:52.731Z,21.52
2023-01-12T23:55:20.160Z,22.13
2023-01-12T23:57:48.700Z,19.83
